Time;durP1;ratioP1;P1;durP2;ratioP2;P2;SDS_P1;SDS_P2;PMS_P1;PMS_P2;Temp;Humidity;BMP_temperature;BMP_pressure;BME280_temperature;BME280_humidity;BME280_pressure;Samples;Min_cycle;Max_cycle;Signal;HPM_P1;HPM_P2
2023/04/21 00:01:28;;;;;;;26.57;20.17;;;10.90;44.50;;;;;;5033905;28;20174;-48
2023/04/21 00:03:55;;;;;;;28.55;19.75;;;10.90;44.60;;;;;;5033835;28;20409;-48
2023/04/21 00:06:21;;;;;;;19.83;17.52;;;10.80;44.50;;;;;;5033670;28;20274;-48
2023/04/21 00:08:50;;;;;;;28.38;21.35;;;10.80;44.60;;;;;;5033824;28;20201;-49
2023/04/21 00:11:15;;;;;;;24.77;19.40;;;10.70;45.10;;;;;;5033612;28;20506;-49
2023/04/21 00:13:41;;;;;;;24.43;17.53;;;10.70;45.30;;;;;;5033570;28;20247;-49
2023/04/21 00:16:07;;;;;;;28.63;19.80;;;10.60;45.10;;;;;;5033570;28;20170;-48
2023/04/21 00:18:33;;;;;;;30.87;22.10;;;10.60;45.00;;;;;;5033705;28;20200;-49
2023/04/21 00:20:59;;;;;;;25.70;21.80;;;10.60;45.40;;;;;;5033678;28;20658;-48
2023/04/21 00:23:24;;;;;;;35.70;25.30;;;10.60;45.50;;;;;;5033382;28;20408;-48
2023/04/21 00:25:51;;;;;;;29.30;21.23;;;10.60;46.30;;;;;;5033308;28;20908;-48
2023/04/21 00:28:16;;;;;;;30.52;21.13;;;10.60;45.90;;;;;;5033129;28;20558;-48
2023/04/21 00:30:42;;;;;;;33.63;18.70;;;10.60;45.60;;;;;;5033583;28;20173;-48
2023/04/21 00:33:08;;;;;;;23.90;18.97;;;10.60;45.30;;;;;;5032885;28;20768;-48
2023/04/21 00:35:34;;;;;;;24.70;18.90;;;10.60;45.10;;;;;;5033415;28;20178;-49
2023/04/21 00:37:59;;;;;;;23.73;17.57;;;10.60;44.90;;;;;;5033230;28;20916;-48
2023/04/21 00:40:26;;;;;;;22.80;19.10;;;10.50;44.70;;;;;;5033170;28;20646;-48
2023/04/21 00:42:52;;;;;;;26.08;19.23;;;10.50;45.00;;;;;;5033096;28;20283;-49
2023/04/21 00:45:17;;;;;;;27.30;19.43;;;10.40;44.90;;;;;;5033051;28;20622;-49
2023/04/21 00:47:43;;;;;;;26.43;19.67;;;10.40;44.90;;;;;;5032855;28;20236;-48
2023/04/21 00:50:10;;;;;;;28.03;19.60;;;10.40;45.00;;;;;;5032837;28;20428;-48
2023/04/21 00:52:38;;;;;;;26.45;17.90;;;10.40;45.10;;;;;;5032557;28;20906;-48
2023/04/21 00:55:04;;;;;;;23.70;18.77;;;10.40;45.00;;;;;;5033029;28;20742;-48
2023/04/21 00:57:31;;;;;;;23.92;18.05;;;10.40;44.70;;;;;;5032688;28;20188;-49
2023/04/21 00:59:57;;;;;;;27.38;18.45;;;10.40;44.70;;;;;;5032732;28;20193;-49
2023/04/21 01:02:23;;;;;;;24.00;17.23;;;10.40;44.50;;;;;;5032747;28;20253;-49
2023/04/21 01:04:48;;;;;;;23.23;15.73;;;10.30;44.60;;;;;;5032833;28;20178;-49
2023/04/21 01:07:14;;;;;;;24.60;17.40;;;10.30;44.60;;;;;;5032871;28;20174;-49
2023/04/21 01:09:40;;;;;;;22.30;16.00;;;10.30;44.70;;;;;;5032491;28;20244;-48
2023/04/21 01:12:08;;;;;;;24.73;16.90;;;10.20;44.70;;;;;;5032258;28;20209;-48
2023/04/21 01:14:39;;;;;;;24.83;18.02;;;10.20;44.70;;;;;;5032472;28;20621;-48
2023/04/21 01:17:06;;;;;;;24.05;17.17;;;10.10;44.70;;;;;;5032551;28;20158;-48
2023/04/21 01:19:34;;;;;;;29.13;17.17;;;10.10;44.80;;;;;;5032501;28;20194;-49
2023/04/21 01:22:05;;;;;;;24.08;16.40;;;10.20;44.90;;;;;;5032145;28;20650;-48
2023/04/21 01:24:42;;;;;;;23.40;16.95;;;10.10;44.90;;;;;;5032537;28;20239;-49
2023/04/21 01:27:10;;;;;;;24.70;16.08;;;10.10;44.80;;;;;;5032280;28;20177;-49
2023/04/21 01:29:36;;;;;;;20.67;17.70;;;10.00;44.80;;;;;;5032153;28;20724;-49
2023/04/21 01:32:12;;;;;;;19.30;15.07;;;10.00;44.80;;;;;;5032212;28;20178;-48
2023/04/21 01:34:39;;;;;;;19.30;15.23;;;10.00;44.90;;;;;;5032392;28;20229;-48
2023/04/21 01:37:09;;;;;;;23.88;19.77;;;10.00;44.80;;;;;;5032326;28;20686;-48
2023/04/21 01:39:44;;;;;;;23.58;17.83;;;9.90;44.90;;;;;;5032095;28;20220;-49
2023/04/21 01:42:10;;;;;;;26.73;17.38;;;9.90;45.30;;;;;;5032040;28;20249;-48
2023/04/21 01:44:36;;;;;;;25.67;18.70;;;9.90;45.30;;;;;;5032035;28;20178;-48
2023/04/21 01:47:02;;;;;;;27.95;19.33;;;9.90;45.40;;;;;;5032036;28;20174;-48
2023/04/21 01:49:28;;;;;;;23.77;17.77;;;9.90;45.50;;;;;;5031827;28;20586;-48
2023/04/21 01:51:53;;;;;;;24.33;18.27;;;9.90;45.50;;;;;;5031854;28;20928;-48
2023/04/21 01:54:19;;;;;;;26.47;18.20;;;10.00;45.30;;;;;;5031990;28;20348;-48
2023/04/21 01:56:45;;;;;;;25.47;17.83;;;10.50;45.50;;;;;;5031798;28;20166;-48
2023/04/21 01:59:11;;;;;;;24.43;18.00;;;9.90;45.10;;;;;;5032138;28;20190;-49
2023/04/21 02:01:36;;;;;;;23.13;16.67;;;9.90;45.20;;;;;;5032152;28;20412;-48
2023/04/21 02:04:03;;;;;;;26.17;16.13;;;9.90;45.10;;;;;;5032019;28;20252;-48
2023/04/21 02:06:30;;;;;;;21.30;16.80;;;9.90;44.90;;;;;;5034028;28;20672;-48
2023/04/21 02:08:57;;;;;;;21.17;15.88;;;9.80;44.80;;;;;;5036103;28;20205;-48
2023/04/21 02:11:31;;;;;;;17.52;14.10;;;9.80;44.80;;;;;;5035785;28;20671;-49
2023/04/21 02:13:57;;;;;;;24.50;17.63;;;9.80;44.80;;;;;;5035668;28;20189;-48
2023/04/21 02:16:26;;;;;;;24.00;16.73;;;9.70;45.00;;;;;;5036043;28;20180;-48
2023/04/21 02:18:52;;;;;;;20.40;15.50;;;9.70;44.90;;;;;;5035960;28;20197;-48
2023/04/21 02:21:20;;;;;;;22.33;16.05;;;9.60;44.80;;;;;;5035710;28;20720;-48
2023/04/21 02:23:46;;;;;;;25.08;17.25;;;9.60;44.80;;;;;;5035601;28;20188;-48
2023/04/21 02:26:11;;;;;;;21.00;15.80;;;9.60;44.70;;;;;;5035835;28;20189;-48
2023/04/21 02:28:37;;;;;;;20.23;15.70;;;9.50;44.70;;;;;;5035760;28;20420;-49
2023/04/21 02:31:03;;;;;;;23.47;17.47;;;9.50;44.80;;;;;;5035538;28;20205;-49
2023/04/21 02:33:29;;;;;;;22.60;15.23;;;9.50;44.70;;;;;;5035471;28;20190;-49
2023/04/21 02:35:55;;;;;;;20.10;15.30;;;9.50;44.70;;;;;;5035482;28;20689;-48
2023/04/21 02:38:20;;;;;;;18.23;14.33;;;9.40;44.50;;;;;;5035201;28;20451;-48
2023/04/21 02:40:46;;;;;;;23.23;16.67;;;9.40;44.50;;;;;;5035538;28;20178;-48
2023/04/21 02:43:15;;;;;;;20.47;16.20;;;9.40;44.50;;;;;;5035013;28;20181;-48
2023/04/21 02:45:41;;;;;;;25.45;17.55;;;9.30;44.50;;;;;;5035203;28;20170;-48
2023/04/21 02:48:06;;;;;;;20.83;16.47;;;9.30;44.70;;;;;;5034989;28;20208;-48
2023/04/21 02:50:32;;;;;;;24.43;16.40;;;9.30;44.60;;;;;;5035169;28;20232;-48
2023/04/21 02:52:59;;;;;;;22.38;16.55;;;9.30;44.70;;;;;;5034685;28;20224;-48
2023/04/21 02:55:25;;;;;;;23.03;17.23;;;9.20;45.30;;;;;;5035336;28;20178;-48
2023/04/21 02:57:51;;;;;;;25.03;16.80;;;9.20;45.30;;;;;;5034964;28;20412;-48
2023/04/21 03:00:17;;;;;;;21.73;16.33;;;9.30;45.20;;;;;;5035064;28;20228;-48
2023/04/21 03:02:43;;;;;;;22.93;18.30;;;9.20;45.00;;;;;;5034806;28;20170;-49
2023/04/21 03:05:09;;;;;;;23.50;16.63;;;9.20;45.10;;;;;;5034880;28;20415;-49
2023/04/21 03:07:35;;;;;;;21.67;15.77;;;9.20;45.40;;;;;;5034853;28;20174;-48
2023/04/21 03:10:01;;;;;;;22.42;16.95;;;9.20;45.30;;;;;;5034588;28;20758;-49
2023/04/21 03:12:27;;;;;;;29.20;18.40;;;9.20;45.20;;;;;;5034633;28;20235;-49
2023/04/21 03:14:53;;;;;;;20.17;15.53;;;9.20;45.10;;;;;;5034708;28;20583;-48
2023/04/21 03:17:18;;;;;;;23.77;16.50;;;9.20;44.80;;;;;;5033547;28;20218;-49
2023/04/21 03:19:44;;;;;;;24.63;17.07;;;9.20;44.60;;;;;;5034466;28;20190;-49
2023/04/21 03:22:10;;;;;;;24.53;16.70;;;9.20;44.50;;;;;;5034210;28;20179;-48
2023/04/21 03:24:36;;;;;;;26.23;16.00;;;9.20;44.40;;;;;;5034454;28;20434;-48
2023/04/21 03:27:01;;;;;;;22.40;16.23;;;9.20;44.50;;;;;;5034787;28;20181;-48
2023/04/21 03:29:27;;;;;;;18.93;13.33;;;9.10;44.50;;;;;;5034497;28;20194;-48
2023/04/21 03:31:53;;;;;;;18.40;15.13;;;9.10;44.40;;;;;;5034395;28;20668;-49
2023/04/21 03:34:18;;;;;;;23.50;14.70;;;9.00;44.30;;;;;;5034317;28;20284;-49
2023/04/21 03:36:44;;;;;;;23.90;14.97;;;9.00;44.10;;;;;;5034230;28;20657;-48
2023/04/21 03:39:10;;;;;;;21.13;15.50;;;8.90;44.30;;;;;;5034362;28;20205;-48
2023/04/21 03:41:36;;;;;;;19.70;14.53;;;8.90;44.90;;;;;;5034445;28;20684;-48
2023/04/21 03:44:01;;;;;;;21.03;14.80;;;8.90;44.70;;;;;;5034049;28;20700;-48
2023/04/21 03:46:27;;;;;;;19.50;15.57;;;8.90;44.70;;;;;;5034376;28;20177;-48
2023/04/21 03:48:53;;;;;;;25.90;14.23;;;9.00;44.60;;;;;;5033933;28;20569;-49
2023/04/21 03:51:19;;;;;;;25.67;17.17;;;9.00;44.50;;;;;;5034244;28;20189;-48
2023/04/21 03:53:44;;;;;;;21.57;16.17;;;9.00;44.50;;;;;;5033702;28;20232;-48
2023/04/21 03:56:10;;;;;;;26.90;16.67;;;8.90;44.60;;;;;;5034144;28;20174;-48
2023/04/21 03:58:36;;;;;;;19.90;14.77;;;8.90;44.60;;;;;;5033963;28;20204;-49
2023/04/21 04:01:05;;;;;;;25.40;16.80;;;8.90;44.60;;;;;;5033724;28;20173;-48
2023/04/21 04:03:31;;;;;;;23.55;17.20;;;8.90;44.80;;;;;;5033648;28;20411;-48
2023/04/21 04:05:56;;;;;;;26.20;17.73;;;8.80;45.00;;;;;;5033985;28;20698;-48
2023/04/21 04:08:22;;;;;;;24.13;17.93;;;8.80;44.90;;;;;;5033582;28;20970;-49
2023/04/21 04:10:48;;;;;;;31.97;18.83;;;8.90;45.20;;;;;;5033870;28;20197;-49
2023/04/21 04:13:13;;;;;;;30.13;18.13;;;8.90;45.30;;;;;;5033278;28;20560;-48
2023/04/21 04:15:39;;;;;;;22.30;17.53;;;8.80;45.00;;;;;;5033894;28;20169;-48
2023/04/21 04:18:05;;;;;;;25.40;18.10;;;8.90;45.80;;;;;;5033647;28;20592;-48
2023/04/21 04:20:31;;;;;;;26.07;18.80;;;8.90;45.10;;;;;;5033423;28;20172;-48
2023/04/21 04:22:56;;;;;;;21.27;16.60;;;8.80;44.90;;;;;;5033521;28;20178;-49
2023/04/21 04:25:22;;;;;;;23.57;17.97;;;8.80;45.10;;;;;;5033441;28;20176;-49
2023/04/21 04:27:49;;;;;;;28.27;16.67;;;8.80;45.40;;;;;;5033406;28;20650;-48
2023/04/21 04:30:15;;;;;;;24.85;17.02;;;8.80;45.30;;;;;;5033096;28;20204;-48
2023/04/21 04:32:41;;;;;;;24.70;17.25;;;8.80;45.30;;;;;;5032930;28;20193;-48
2023/04/21 04:35:08;;;;;;;24.17;16.97;;;8.90;45.30;;;;;;5033083;28;20162;-48
2023/04/21 04:37:38;;;;;;;23.10;15.65;;;8.80;45.30;;;;;;5033018;28;20990;-49
2023/04/21 04:40:05;;;;;;;22.40;15.18;;;8.90;45.30;;;;;;5033183;28;20657;-48
2023/04/21 04:42:32;;;;;;;24.80;15.90;;;8.80;45.40;;;;;;5032763;28;20205;-48
2023/04/21 04:44:58;;;;;;;23.50;15.80;;;8.80;45.50;;;;;;5032929;28;20181;-48
2023/04/21 04:47:24;;;;;;;25.52;15.98;;;8.90;45.60;;;;;;5033022;28;20281;-48
2023/04/21 04:49:50;;;;;;;26.80;19.70;;;8.90;45.80;;;;;;5032749;28;20204;-48
2023/04/21 04:52:15;;;;;;;26.87;17.53;;;9.00;45.70;;;;;;5032602;28;20399;-48
2023/04/21 04:54:41;;;;;;;24.43;16.90;;;9.00;45.90;;;;;;5032982;28;21044;-48
2023/04/21 04:57:07;;;;;;;20.30;16.57;;;9.20;45.90;;;;;;5032798;28;20166;-49
2023/04/21 04:59:35;;;;;;;26.53;18.43;;;9.20;46.00;;;;;;5032659;28;20272;-48
2023/04/21 05:02:01;;;;;;;24.73;18.52;;;9.30;46.20;;;;;;5032431;28;20445;-48
2023/04/21 05:04:27;;;;;;;26.85;18.88;;;9.50;46.40;;;;;;5032510;28;20178;-49
2023/04/21 05:06:53;;;;;;;27.00;19.20;;;9.50;46.30;;;;;;5032874;28;20183;-48
2023/04/21 05:09:19;;;;;;;26.70;19.13;;;9.60;46.30;;;;;;5032555;28;20716;-48
2023/04/21 05:11:44;;;;;;;28.20;20.10;;;9.60;46.20;;;;;;5032308;28;20646;-49
2023/04/21 05:14:10;;;;;;;33.57;22.70;;;9.70;46.30;;;;;;5032291;28;20831;-49
2023/04/21 05:16:36;;;;;;;24.53;21.13;;;9.90;46.40;;;;;;5032351;28;20199;-49
2023/04/21 05:19:02;;;;;;;35.00;24.23;;;10.00;46.50;;;;;;5032140;28;20266;-49
2023/04/21 05:21:28;;;;;;;26.98;19.58;;;10.10;47.30;;;;;;5032294;28;20654;-49
2023/04/21 05:23:55;;;;;;;28.65;18.90;;;10.20;47.40;;;;;;5032270;28;20182;-48
2023/04/21 05:26:21;;;;;;;23.95;17.40;;;10.40;46.80;;;;;;5032320;28;20173;-49
2023/04/21 05:28:47;;;;;;;29.10;20.85;;;10.50;46.90;;;;;;5032407;28;20332;-48
2023/04/21 05:31:13;;;;;;;22.20;16.15;;;10.60;46.80;;;;;;5032211;28;20685;-48
2023/04/21 05:33:39;;;;;;;22.73;17.13;;;10.70;46.80;;;;;;5031980;28;20285;-48
2023/04/21 05:36:09;;;;;;;21.83;17.43;;;10.90;46.90;;;;;;5032261;28;20639;-48
2023/04/21 05:38:36;;;;;;;25.33;18.95;;;11.00;46.90;;;;;;5031954;28;20436;-48
2023/04/21 05:41:02;;;;;;;21.95;15.50;;;11.10;46.90;;;;;;5031379;28;20170;-48
2023/04/21 05:43:28;;;;;;;24.05;16.92;;;11.20;46.80;;;;;;5032046;28;20178;-48
2023/04/21 05:45:54;;;;;;;20.63;17.50;;;11.30;47.00;;;;;;5032304;28;20758;-48
2023/04/21 05:48:19;;;;;;;24.10;17.37;;;11.40;46.90;;;;;;5031926;28;20249;-48
2023/04/21 05:50:45;;;;;;;28.50;18.80;;;11.50;46.90;;;;;;5031923;28;20598;-48
2023/04/21 05:53:11;;;;;;;25.70;18.10;;;11.50;46.90;;;;;;5031911;28;20201;-48
2023/04/21 05:55:37;;;;;;;27.83;19.60;;;11.60;47.10;;;;;;5032151;28;20173;-48
2023/04/21 05:58:03;;;;;;;25.07;19.07;;;11.80;47.30;;;;;;5032191;28;20646;-48
2023/04/21 06:00:29;;;;;;;20.70;17.05;;;11.90;47.00;;;;;;5031698;28;20924;-48
2023/04/21 06:02:55;;;;;;;19.77;16.45;;;12.00;47.00;;;;;;5031574;28;20181;-49
2023/04/21 06:05:20;;;;;;;29.63;19.27;;;12.10;47.20;;;;;;5032004;28;20184;-49
2023/04/21 06:07:46;;;;;;;24.10;18.80;;;12.30;47.30;;;;;;5031988;28;20174;-49
2023/04/21 06:10:13;;;;;;;23.17;17.77;;;12.40;47.00;;;;;;5031744;28;20782;-48
2023/04/21 06:12:39;;;;;;;20.38;17.45;;;12.60;46.90;;;;;;5031461;28;20173;-48
2023/04/21 06:15:05;;;;;;;27.50;20.20;;;12.70;46.90;;;;;;5031654;28;20174;-48
2023/04/21 06:17:31;;;;;;;27.30;19.50;;;12.80;46.70;;;;;;5031609;28;20419;-48
2023/04/21 06:19:57;;;;;;;30.87;21.20;;;12.90;46.60;;;;;;5031756;28;20201;-49
2023/04/21 06:22:23;;;;;;;23.77;19.57;;;13.00;47.10;;;;;;5031433;28;20890;-49
2023/04/21 06:24:49;;;;;;;25.10;18.48;;;13.20;46.50;;;;;;5031694;28;20423;-49
2023/04/21 06:27:15;;;;;;;24.93;21.83;;;13.20;46.20;;;;;;5031641;28;20546;-48
2023/04/21 06:29:42;;;;;;;26.60;20.90;;;13.30;46.10;;;;;;5031408;28;20436;-49
2023/04/21 06:32:11;;;;;;;23.10;20.10;;;13.30;46.30;;;;;;5031540;28;20539;-49
2023/04/21 06:34:37;;;;;;;25.08;20.48;;;13.40;46.10;;;;;;5031250;28;20304;-48
2023/04/21 06:37:03;;;;;;;26.52;18.92;;;13.50;46.40;;;;;;5031775;28;20262;-48
2023/04/21 06:39:29;;;;;;;21.90;18.65;;;13.70;46.20;;;;;;5031336;28;20202;-48
2023/04/21 06:41:57;;;;;;;29.70;18.88;;;13.80;45.90;;;;;;5031321;28;20220;-49
2023/04/21 06:44:22;;;;;;;24.77;18.20;;;13.90;45.70;;;;;;5031671;28;20178;-49
2023/04/21 06:46:48;;;;;;;23.50;19.30;;;14.00;46.00;;;;;;5031500;28;20674;-49
2023/04/21 06:49:14;;;;;;;26.17;18.07;;;14.20;46.20;;;;;;5031277;28;20246;-49
2023/04/21 06:51:40;;;;;;;21.30;17.90;;;14.40;45.90;;;;;;5032186;28;20229;-48
2023/04/21 06:54:06;;;;;;;22.80;16.40;;;14.50;45.90;;;;;;5035101;28;21209;-49
2023/04/21 06:56:32;;;;;;;22.90;17.57;;;14.70;45.10;;;;;;5035045;28;20573;-48
2023/04/21 06:58:57;;;;;;;22.10;16.40;;;14.70;43.90;;;;;;5034782;28;20416;-48
2023/04/21 07:01:23;;;;;;;23.27;16.60;;;14.80;44.10;;;;;;5034842;28;20170;-48
2023/04/21 07:03:52;;;;;;;18.90;16.23;;;14.80;43.90;;;;;;5034955;28;20200;-48
2023/04/21 07:06:18;;;;;;;25.15;16.10;;;15.00;44.00;;;;;;5034893;28;20182;-49
2023/04/21 07:08:43;;;;;;;22.90;16.00;;;15.10;44.10;;;;;;5034944;28;20198;-49
2023/04/21 07:11:09;;;;;;;23.13;18.23;;;15.20;44.20;;;;;;5034965;28;20534;-48
2023/04/21 07:13:35;;;;;;;24.03;16.03;;;15.40;43.40;;;;;;5034561;28;20229;-48
2023/04/21 07:16:00;;;;;;;15.67;13.17;;;15.50;42.80;;;;;;5034818;28;20681;-49
2023/04/21 07:18:26;;;;;;;23.87;15.77;;;15.50;41.90;;;;;;5034947;28;20280;-48
2023/04/21 07:20:52;;;;;;;21.70;15.20;;;15.50;41.80;;;;;;5034781;28;20173;-48
2023/04/21 07:23:18;;;;;;;20.77;14.80;;;15.60;42.00;;;;;;5034547;28;20650;-48
2023/04/21 07:25:43;;;;;;;19.03;16.30;;;15.80;42.30;;;;;;5034410;28;20196;-48
2023/04/21 07:28:09;;;;;;;21.70;16.00;;;15.90;41.90;;;;;;5034214;28;20455;-48
2023/04/21 07:30:36;;;;;;;21.83;16.38;;;16.00;41.50;;;;;;5034568;28;20644;-48
2023/04/21 07:33:02;;;;;;;25.45;16.95;;;16.20;41.80;;;;;;5034010;28;20241;-48
2023/04/21 07:35:28;;;;;;;18.92;15.60;;;16.40;42.30;;;;;;5034284;28;20170;-48
2023/04/21 07:37:53;;;;;;;18.17;13.43;;;16.50;41.80;;;;;;5034344;28;20173;-49
2023/04/21 07:40:19;;;;;;;17.47;15.63;;;16.70;42.10;;;;;;5034201;28;20665;-48
2023/04/21 07:42:45;;;;;;;20.63;13.70;;;17.00;41.80;;;;;;5034010;28;20236;-48
2023/04/21 07:45:11;;;;;;;21.77;14.77;;;17.20;41.50;;;;;;5034356;28;20173;-48
2023/04/21 07:47:37;;;;;;;17.13;14.73;;;17.40;41.50;;;;;;5034127;28;20503;-48
2023/04/21 07:50:03;;;;;;;23.13;14.90;;;17.60;41.20;;;;;;5034049;28;20651;-48
2023/04/21 07:52:29;;;;;;;17.50;12.00;;;17.70;40.90;;;;;;5033755;28;20252;-48
2023/04/21 07:54:55;;;;;;;21.57;14.73;;;17.90;39.60;;;;;;5033878;28;20218;-48
2023/04/21 07:57:20;;;;;;;21.13;14.93;;;18.10;38.60;;;;;;5034212;28;20180;-49
2023/04/21 07:59:46;;;;;;;15.90;13.00;;;18.10;38.30;;;;;;5034003;28;20429;-48
2023/04/21 08:02:12;;;;;;;17.87;13.30;;;18.20;37.40;;;;;;5033805;28;20170;-48
2023/04/21 08:04:38;;;;;;;17.60;14.60;;;18.30;38.40;;;;;;5033261;28;20177;-48
2023/04/21 08:07:03;;;;;;;17.63;13.87;;;18.40;38.90;;;;;;5033703;28;20569;-49
2023/04/21 08:09:29;;;;;;;19.47;13.37;;;18.60;37.80;;;;;;5033827;28;20193;-48
2023/04/21 08:11:56;;;;;;;15.83;12.33;;;18.70;38.10;;;;;;5033619;28;20811;-48
2023/04/21 08:14:22;;;;;;;19.42;11.82;;;19.00;38.70;;;;;;5033437;28;20958;-48
2023/04/21 08:16:48;;;;;;;15.40;11.10;;;19.30;39.40;;;;;;5033768;28;20186;-48
2023/04/21 08:19:14;;;;;;;14.97;11.90;;;19.60;38.50;;;;;;5033321;28;20941;-48
2023/04/21 08:21:40;;;;;;;13.20;9.97;;;19.00;37.90;;;;;;5033460;28;20416;-48
2023/04/21 08:24:05;;;;;;;16.13;9.30;;;20.10;38.10;;;;;;5033521;28;20182;-48
2023/04/21 08:26:32;;;;;;;11.60;8.73;;;20.40;36.80;;;;;;5033164;28;20201;-48
2023/04/21 08:28:59;;;;;;;14.63;9.55;;;20.50;35.10;;;;;;5033119;28;20785;-48
2023/04/21 08:31:25;;;;;;;9.77;6.75;;;20.60;32.60;;;;;;5033132;28;20235;-48
2023/04/21 08:33:52;;;;;;;12.47;6.80;;;20.70;32.10;;;;;;5033117;28;20205;-48
2023/04/21 08:36:18;;;;;;;14.45;5.65;;;20.80;31.60;;;;;;5033262;28;20597;-48
2023/04/21 08:38:44;;;;;;;9.60;5.82;;;21.00;29.30;;;;;;5033221;28;20589;-48
2023/04/21 08:41:10;;;;;;;6.03;5.05;;;21.10;31.30;;;;;;5033033;28;20182;-48
2023/04/21 08:43:36;;;;;;;6.90;6.10;;;21.40;31.00;;;;;;5032804;28;20519;-48
2023/04/21 08:46:06;;;;;;;5.80;4.30;;;21.70;31.20;;;;;;5033161;28;20178;-49
2023/04/21 08:48:37;;;;;;;4.78;3.85;;;21.90;28.30;;;;;;5032477;28;20205;-49
2023/04/21 08:51:04;;;;;;;7.40;3.97;;;22.00;27.50;;;;;;5032938;28;20178;-49
2023/04/21 08:53:30;;;;;;;5.07;3.57;;;22.20;28.00;;;;;;5032380;28;20208;-48
2023/04/21 08:55:56;;;;;;;9.33;4.07;;;22.40;25.80;;;;;;5032750;28;20409;-48
2023/04/21 08:58:22;;;;;;;6.60;4.37;;;22.40;24.50;;;;;;5032805;28;20185;-48
2023/04/21 09:00:48;;;;;;;6.63;3.90;;;22.60;26.60;;;;;;5032746;28;20201;-49
2023/04/21 09:03:22;;;;;;;6.50;3.50;;;22.70;24.60;;;;;;5032427;28;20977;-48
2023/04/21 09:05:57;;;;;;;10.57;4.60;;;22.90;24.70;;;;;;5032737;28;20416;-49
2023/04/21 09:08:24;;;;;;;7.10;3.87;;;23.00;23.70;;;;;;5032719;28;20486;-49
2023/04/21 09:10:53;;;;;;;8.93;4.43;;;23.10;23.10;;;;;;5032568;28;20420;-49
2023/04/21 09:13:20;;;;;;;4.93;4.30;;;23.20;23.60;;;;;;5032208;28;20455;-48
2023/04/21 09:15:53;;;;;;;10.10;4.47;;;23.20;23.60;;;;;;5031726;28;20415;-49
2023/04/21 09:18:27;;;;;;;10.07;4.17;;;23.20;21.80;;;;;;5032273;28;20449;-49
2023/04/21 09:21:13;;;;;;;10.40;4.70;;;23.30;22.20;;;;;;5032625;28;20423;-49
2023/04/21 09:23:45;;;;;;;7.80;4.17;;;23.40;23.00;;;;;;5032085;28;21012;-49
2023/04/21 09:26:11;;;;;;;4.97;3.77;;;23.50;22.50;;;;;;5032230;28;20416;-48
2023/04/21 09:28:40;;;;;;;7.47;4.07;;;23.60;23.20;;;;;;5032197;28;20433;-51
2023/04/21 09:31:14;;;;;;;7.20;3.70;;;23.80;23.90;;;;;;5032116;28;20413;-49
2023/04/21 09:33:44;;;;;;;8.60;3.90;;;24.00;24.40;;;;;;5031919;28;20456;-49
2023/04/21 09:36:21;;;;;;;7.47;4.00;;;24.20;23.10;;;;;;5032378;28;20419;-48
2023/04/21 09:38:58;;;;;;;6.73;3.60;;;24.30;23.00;;;;;;5032285;28;20416;-49
2023/04/21 09:41:24;;;;;;;4.53;3.90;;;24.30;22.80;;;;;;5031952;28;20877;-49
2023/04/21 09:43:50;;;;;;;7.20;4.17;;;24.30;21.80;;;;;;5032036;28;20423;-50
2023/04/21 09:46:17;;;;;;;11.63;4.53;;;24.10;22.70;;;;;;5032176;28;20409;-49
2023/04/21 09:48:44;;;;;;;9.50;4.73;;;24.00;22.00;;;;;;5031899;28;20452;-49
2023/04/21 09:51:15;;;;;;;16.80;5.27;;;23.90;23.20;;;;;;5031959;28;20435;-48
2023/04/21 09:53:43;;;;;;;7.87;4.40;;;23.80;21.50;;;;;;5031860;28;20517;-49
2023/04/21 09:56:12;;;;;;;8.73;4.23;;;23.80;23.90;;;;;;5032098;28;20408;-49
2023/04/21 09:58:53;;;;;;;7.03;4.30;;;23.70;23.00;;;;;;5031861;28;20439;-49
2023/04/21 10:01:19;;;;;;;7.70;3.87;;;23.70;22.60;;;;;;5031931;28;20500;-49
2023/04/21 10:03:48;;;;;;;8.03;4.20;;;23.50;20.70;;;;;;5031901;28;20466;-49
2023/04/21 10:06:14;;;;;;;5.90;4.20;;;23.40;23.40;;;;;;5031844;28;20455;-49
2023/04/21 10:08:40;;;;;;;6.40;4.03;;;23.60;23.00;;;;;;5031626;28;20983;-49
2023/04/21 10:11:07;;;;;;;10.90;4.37;;;23.80;23.30;;;;;;5031928;28;20436;-49
2023/04/21 10:13:34;;;;;;;7.17;4.83;;;24.00;22.50;;;;;;5031381;28;21015;-49
2023/04/21 10:16:07;;;;;;;6.20;3.87;;;24.30;21.90;;;;;;5031790;28;20401;-49
2023/04/21 10:18:37;;;;;;;7.77;4.30;;;24.50;21.20;;;;;;5031905;28;20478;-49
2023/04/21 10:21:05;;;;;;;14.07;4.80;;;24.60;22.00;;;;;;5031625;28;20484;-49
2023/04/21 10:23:45;;;;;;;8.23;3.70;;;24.90;24.30;;;;;;5031363;28;20905;-49
2023/04/21 10:26:24;;;;;;;6.07;3.40;;;25.40;23.60;;;;;;5031556;28;20408;-49
2023/04/21 10:28:59;;;;;;;7.83;3.70;;;25.50;18.80;;;;;;5035553;28;20428;-50
2023/04/21 10:31:33;;;;;;;7.80;3.00;;;25.50;18.10;;;;;;5035367;28;20400;-49
2023/04/21 10:34:07;;;;;;;5.30;3.20;;;25.50;17.80;;;;;;5035209;28;20455;-49
2023/04/21 10:36:34;;;;;;;5.53;3.37;;;25.30;15.60;;;;;;5035321;28;20800;-50
2023/04/21 10:39:05;;;;;;;6.53;3.13;;;25.10;18.80;;;;;;5035651;28;20428;-49
2023/04/21 10:41:32;;;;;;;5.27;3.00;;;25.20;18.40;;;;;;5035234;28;20503;-50
2023/04/21 10:44:11;;;;;;;8.13;3.47;;;25.20;16.90;;;;;;5034938;28;20441;-50
2023/04/21 10:46:44;;;;;;;9.83;3.03;;;25.30;19.10;;;;;;5035488;28;20559;-50
2023/04/21 10:49:30;;;;;;;6.80;2.80;;;25.40;17.50;;;;;;5034977;28;20456;-49
2023/04/21 10:51:58;;;;;;;5.33;3.07;;;25.60;18.40;;;;;;5034662;28;20413;-49
2023/04/21 10:54:25;;;;;;;4.80;2.73;;;25.70;18.20;;;;;;5034897;28;20499;-49
2023/04/21 10:56:55;;;;;;;7.57;3.10;;;25.80;17.20;;;;;;5035106;28;20401;-50
2023/04/21 10:59:21;;;;;;;11.40;3.37;;;25.80;17.40;;;;;;5017164;28;20440;-50
2023/04/21 11:01:47;;;;;;;7.93;3.60;;;25.90;17.50;;;;;;5034884;28;20404;-50
2023/04/21 11:04:14;;;;;;;4.23;2.90;;;26.00;17.90;;;;;;5034969;28;20773;-50
2023/04/21 11:06:40;;;;;;;7.00;3.40;;;26.00;16.90;;;;;;5035125;28;20538;-49
2023/04/21 11:09:06;;;;;;;6.73;2.60;;;26.00;18.90;;;;;;5034578;28;20777;-50
2023/04/21 11:11:31;;;;;;;7.97;3.80;;;26.30;18.00;;;;;;5034619;28;20408;-50
2023/04/21 11:14:01;;;;;;;7.20;2.97;;;26.60;17.40;;;;;;5034549;28;20202;-50
2023/04/21 11:16:26;;;;;;;6.47;3.20;;;26.60;16.00;;;;;;5034819;28;20193;-50
2023/04/21 11:18:55;;;;;;;8.27;3.83;;;26.60;15.80;;;;;;5034579;28;20421;-50
2023/04/21 11:21:21;;;;;;;3.60;3.00;;;26.60;17.00;;;;;;5016746;28;20265;-50
2023/04/21 11:23:55;;;;;;;6.13;2.80;;;26.80;16.40;;;;;;5034495;28;20413;-49
2023/04/21 11:26:36;;;;;;;6.20;3.40;;;26.80;15.10;;;;;;5034489;28;20400;-49
2023/04/21 11:29:07;;;;;;;3.90;2.73;;;26.80;16.70;;;;;;5034389;28;20514;-50
2023/04/21 11:31:34;;;;;;;4.83;3.17;;;26.70;15.30;;;;;;5034571;28;20415;-50
2023/04/21 11:34:00;;;;;;;5.47;2.83;;;26.60;18.20;;;;;;5033960;28;20956;-50
2023/04/21 11:36:26;;;;;;;5.37;3.60;;;26.70;17.90;;;;;;5034442;28;20822;-50
2023/04/21 11:38:52;;;;;;;4.00;3.17;;;26.60;17.60;;;;;;5033055;28;20452;-50
2023/04/21 11:41:23;;;;;;;3.40;2.50;;;26.70;16.30;;;;;;5034403;28;20194;-50
2023/04/21 11:43:50;;;;;;;10.43;3.57;;;26.60;15.40;;;;;;5033959;28;20416;-51
2023/04/21 11:46:17;;;;;;;7.43;3.03;;;26.50;15.20;;;;;;5034045;28;20413;-50
2023/04/21 11:48:44;;;;;;;7.83;3.50;;;26.50;16.90;;;;;;5033928;28;20460;-50
2023/04/21 11:51:17;;;;;;;6.27;3.00;;;26.50;16.20;;;;;;5034356;28;20412;-50
2023/04/21 11:53:46;;;;;;;9.43;3.60;;;26.60;16.50;;;;;;5033872;28;20477;-50
2023/04/21 11:56:17;;;;;;;4.00;2.63;;;26.80;16.10;;;;;;5034016;28;20409;-50
2023/04/21 11:58:44;;;;;;;8.07;4.03;;;26.90;17.20;;;;;;5033731;28;20828;-50
2023/04/21 12:01:10;;;;;;;6.10;3.53;;;27.10;16.80;;;;;;5033745;28;20412;-50
2023/04/21 12:03:36;;;;;;;6.33;3.00;;;27.00;15.10;;;;;;5033791;28;20467;-50
2023/04/21 12:06:02;;;;;;;5.43;2.50;;;27.00;17.00;;;;;;5034016;28;20463;-50
2023/04/21 12:08:30;;;;;;;5.53;3.73;;;27.00;15.40;;;;;;5033701;28;20440;-50
2023/04/21 12:10:58;;;;;;;7.83;2.97;;;27.00;15.50;;;;;;5033535;28;20178;-50
2023/04/21 12:13:26;;;;;;;5.13;3.73;;;27.00;16.20;;;;;;5033233;28;20452;-50
2023/04/21 12:15:51;;;;;;;7.23;4.00;;;26.90;16.50;;;;;;5033492;28;20409;-50
2023/04/21 12:18:17;;;;;;;6.43;3.20;;;27.00;16.40;;;;;;5033692;28;20432;-50
2023/04/21 12:20:50;;;;;;;8.60;3.17;;;27.10;16.60;;;;;;5033396;28;20177;-50
2023/04/21 12:23:17;;;;;;;8.30;2.77;;;27.10;16.30;;;;;;5033210;28;20184;-50
2023/04/21 12:25:44;;;;;;;3.57;2.60;;;26.90;14.90;;;;;;5032855;28;20754;-50
2023/04/21 12:28:10;;;;;;;9.37;2.73;;;26.80;15.60;;;;;;5033322;28;20794;-50
2023/04/21 12:30:36;;;;;;;6.90;2.97;;;26.60;14.90;;;;;;5033293;28;20893;-50
2023/04/21 12:33:02;;;;;;;3.97;3.20;;;26.50;16.40;;;;;;5032784;28;20535;-51
2023/04/21 12:35:27;;;;;;;4.90;3.00;;;26.60;17.40;;;;;;5033142;28;20174;-50